Time;durP1;ratioP1;P1;durP2;ratioP2;P2;SDS_P1;SDS_P2;PMS_P1;PMS_P2;Temp;Humidity;BMP_temperature;BMP_pressure;BME280_temperature;BME280_humidity;BME280_pressure;Samples;Min_cycle;Max_cycle;Signal;HPM_P1;HPM_P2
2022/05/03 00:01:33;;;;;;;11.57;5.82;;;;;;;8.60;69.72;101917.38;5029173;28;20025;-76
2022/05/03 00:04:07;;;;;;;13.35;6.60;;;;;;;8.56;69.60;101912.22;5038943;28;20022;-76
2022/05/03 00:06:47;;;;;;;;;;;;;;;8.58;68.03;101907.94;5029977;28;20033;-76
2022/05/03 00:09:22;;;;;;;10.98;5.75;;;;;;;8.52;70.46;101911.38;5028912;28;19912;-76
2022/05/03 00:12:04;;;;;;;13.35;6.13;;;;;;;8.53;69.31;101915.66;5016049;28;20051;-76
2022/05/03 00:14:42;;;;;;;10.15;6.22;;;;;;;8.47;68.85;101905.31;5037200;28;20111;-76
2022/05/03 00:17:08;;;;;;;11.23;5.97;;;;;;;8.48;69.89;101911.34;5035835;28;20030;-76
2022/05/03 00:19:33;;;;;;;10.65;5.65;;;;;;;8.41;69.78;101905.31;5029406;28;20079;-76
2022/05/03 00:21:59;;;;;;;12.43;6.03;;;;;;;8.38;69.16;101901.88;5035690;28;20111;-76
2022/05/03 00:24:25;;;;;;;11.05;5.53;;;;;;;8.35;69.12;101899.25;5029220;28;20587;-76
2022/05/03 00:26:51;;;;;;;10.45;5.63;;;;;;;8.36;69.81;101898.41;5027005;28;20030;-76
2022/05/03 00:29:17;;;;;;;11.52;6.00;;;;;;;8.38;69.97;101905.31;5030005;28;20115;-76
2022/05/03 00:31:44;;;;;;;12.13;5.75;;;;;;;8.33;69.09;101901.84;5039287;28;20029;-76
2022/05/03 00:34:10;;;;;;;11.93;5.65;;;;;;;8.32;69.86;101903.56;5027537;28;20373;-76
2022/05/03 00:36:35;;;;;;;8.27;5.25;;;;;;;8.30;69.87;101889.78;5036032;28;20479;-76
2022/05/03 00:39:01;;;;;;;10.52;5.50;;;;;;;8.24;69.77;101896.63;5028610;28;20057;-76
2022/05/03 00:41:33;;;;;;;9.55;5.10;;;;;;;8.26;70.12;101900.06;5039509;28;20032;-76
2022/05/03 00:47:10;;;;;;;10.70;4.95;;;;;;;8.19;69.18;101898.31;5019456;28;20099;-77
2022/05/03 00:49:51;;;;;;;9.23;4.82;;;;;;;8.16;69.57;101894.03;5028654;28;20029;-76
2022/05/03 00:52:24;;;;;;;9.02;5.20;;;;;;;8.13;69.83;101891.41;5028459;28;20045;-76
2022/05/03 00:55:19;;;;;;;10.30;5.40;;;;;;;8.15;70.00;101894.00;5028856;28;20017;-76
2022/05/03 00:58:00;;;;;;;9.05;4.93;;;;;;;8.11;69.78;101895.75;5037564;28;20489;-76
2022/05/03 01:00:26;;;;;;;10.75;5.13;;;;;;;8.06;69.40;101901.72;5035786;28;20205;-76
2022/05/03 01:03:15;;;;;;;11.25;5.32;;;;;;;8.02;69.94;101894.81;5032868;28;20290;-77
2022/05/03 01:05:49;;;;;;;11.00;5.90;;;;;;;8.03;70.52;101900.00;5033055;28;20118;-76
2022/05/03 01:08:28;;;;;;;10.55;5.40;;;;;;;7.99;69.90;101903.41;5032131;28;20112;-76
2022/05/03 01:11:39;;;;;;;10.13;5.40;;;;;;;7.94;70.02;101897.38;5032592;28;20041;-76
2022/05/03 01:14:21;;;;;;;9.35;5.38;;;;;;;7.88;70.82;101900.81;5027276;28;20049;-76
2022/05/03 01:17:03;;;;;;;10.70;5.70;;;;;;;7.88;70.67;101898.22;5023337;28;20032;-76
2022/05/03 01:20:04;;;;;;;10.25;5.35;;;;;;;7.86;70.06;101893.91;5019733;28;20117;-77
2022/05/03 01:22:55;;;;;;;11.32;5.32;;;;;;;7.82;70.35;101897.34;5032218;28;20039;-76
2022/05/03 01:25:33;;;;;;;11.68;5.20;;;;;;;7.75;70.27;101901.59;5031835;28;20144;-77
2022/05/03 01:28:16;;;;;;;12.35;5.65;;;;;;;7.70;71.46;101895.56;5040116;28;20095;-77
2022/05/03 01:30:47;;;;;;;10.75;5.45;;;;;;;7.62;71.19;101902.41;5028793;28;20536;-77
2022/05/03 01:33:17;;;;;;;9.35;5.18;;;;;;;7.61;71.99;101902.38;5032009;28;20488;-77
2022/05/03 01:35:46;;;;;;;10.90;5.80;;;;;;;7.56;71.69;101907.53;5040902;28;20045;-77
2022/05/03 01:38:30;;;;;;;11.82;5.82;;;;;;;7.54;71.85;101904.94;5031495;28;20052;-76
2022/05/03 01:41:19;;;;;;;9.43;5.82;;;;;;;7.52;72.23;101898.88;5045014;28;20112;-76
2022/05/03 01:43:56;;;;;;;12.30;5.88;;;;;;;7.50;72.24;101894.59;5029315;28;20033;-77
2022/05/03 01:46:24;;;;;;;12.32;5.95;;;;;;;7.46;72.35;101898.00;5031304;28;20099;-77
2022/05/03 01:52:07;;;;;;;10.00;5.80;;;;;;;7.40;71.94;101897.97;5032342;28;20150;-77
2022/05/03 01:54:59;;;;;;;10.38;5.65;;;;;;;7.40;72.00;101892.81;5022003;28;20034;-76
2022/05/03 01:57:45;;;;;;;10.65;5.53;;;;;;;7.39;72.81;101888.50;5020797;28;20487;-76
2022/05/03 02:00:11;;;;;;;11.18;5.70;;;;;;;7.36;73.23;101891.06;5046450;28;20033;-76
2022/05/03 02:02:52;;;;;;;10.23;5.55;;;;;;;7.37;72.05;101888.47;5030359;28;20460;-76
2022/05/03 02:05:38;;;;;;;9.95;5.47;;;;;;;7.37;72.52;101892.81;5042004;28;20395;-76
2022/05/03 02:08:08;;;;;;;10.07;5.85;;;;;;;7.29;72.84;101891.88;5030398;28;20025;-76
2022/05/03 02:10:56;;;;;;;10.23;5.68;;;;;;;7.28;72.99;101898.75;5027972;28;20033;-76
2022/05/03 02:17:11;;;;;;;9.75;5.25;;;;;;;7.17;72.54;101889.19;5030088;28;20119;-76
2022/05/03 02:19:45;;;;;;;11.35;5.18;;;;;;;7.13;73.39;101885.75;5023625;28;20407;-76
2022/05/03 02:22:25;;;;;;;10.95;5.45;;;;;;;7.10;73.13;101888.28;5029222;28;20517;-76
2022/05/03 02:24:59;;;;;;;10.60;5.35;;;;;;;7.07;73.44;101888.28;5023917;28;20029;-76
2022/05/03 02:27:26;;;;;;;12.00;5.70;;;;;;;7.01;71.91;101894.25;5030365;28;20570;-76
2022/05/03 02:29:51;;;;;;;10.63;5.45;;;;;;;6.99;73.30;101892.50;5030513;28;20781;-76
2022/05/03 02:32:30;;;;;;;9.05;5.28;;;;;;;6.95;73.48;101883.91;5033186;28;20036;-77
2022/05/03 02:35:03;;;;;;;11.13;5.55;;;;;;;6.92;73.56;101883.00;5033770;28;20105;-77
2022/05/03 02:37:35;;;;;;;10.15;5.53;;;;;;;6.89;72.27;101877.84;5029394;28;20574;-77
2022/05/03 02:40:07;;;;;;;11.00;5.57;;;;;;;6.86;73.89;101877.81;5028119;28;20025;-76
2022/05/03 02:42:33;;;;;;;10.50;5.40;;;;;;;6.83;74.20;101882.91;5029990;28;20514;-77
2022/05/03 02:45:00;;;;;;;10.45;5.68;;;;;;;6.80;74.52;101883.78;5030116;28;20156;-76
2022/05/03 02:47:41;;;;;;;10.05;5.57;;;;;;;6.75;73.62;101883.72;5027877;28;20040;-77
2022/05/03 02:50:12;;;;;;;11.25;6.03;;;;;;;6.72;74.19;101882.84;5028686;28;20025;-76
2022/05/03 02:52:43;;;;;;;13.35;6.90;;;;;;;6.70;75.01;101876.81;4992870;28;1057288;-76
2022/05/03 02:55:13;;;;;;;11.60;6.05;;;;;;;6.70;75.23;101880.25;5031165;28;20039;-76
2022/05/03 02:57:52;;;;;;;11.48;6.38;;;;;;;6.70;75.11;101874.22;5030819;28;20037;-76
2022/05/03 03:03:17;;;;;;;;;;;;;;;6.71;72.93;101883.69;5035749;28;20040;-77
2022/05/03 03:05:47;;;;;;;11.73;6.68;;;;;;;6.67;74.42;101876.78;5030974;28;19918;-76
2022/05/03 03:08:19;;;;;;;15.32;7.07;;;;;;;6.65;74.87;101886.22;5026983;28;20017;-76
2022/05/03 03:11:07;;;;;;;12.93;6.63;;;;;;;6.62;73.89;101888.75;5037573;28;20103;-76
2022/05/03 03:13:49;;;;;;;13.27;6.60;;;;;;;6.58;74.52;101890.44;5030059;28;20526;-77
2022/05/03 03:16:34;;;;;;;16.92;7.07;;;;;;;6.54;75.44;101880.97;5030269;28;20040;-77
2022/05/03 03:19:13;;;;;;;13.98;7.05;;;;;;;6.53;74.64;101881.81;5030569;28;20408;-76
2022/05/03 03:21:39;;;;;;;14.88;7.32;;;;;;;6.51;75.97;101874.91;5027481;28;20024;-76
2022/05/03 03:24:08;;;;;;;14.07;7.32;;;;;;;6.50;76.43;101875.75;5030367;28;20112;-76
2022/05/03 03:26:35;;;;;;;14.60;7.38;;;;;;;6.48;76.21;101885.22;5029347;28;20017;-77
2022/05/03 03:29:04;;;;;;;15.02;7.72;;;;;;;6.47;76.17;101883.47;5030309;28;20450;-76
2022/05/03 03:31:30;;;;;;;13.07;7.57;;;;;;;6.44;76.53;101886.00;5029545;28;20071;-76
2022/05/03 03:33:57;;;;;;;15.18;7.50;;;;;;;6.45;76.76;101888.59;5030125;28;20771;-76
2022/05/03 03:36:23;;;;;;;16.38;7.97;;;;;;;6.41;76.81;101888.56;5020282;28;20029;-76
2022/05/03 03:38:49;;;;;;;14.98;7.68;;;;;;;6.38;76.95;101881.66;5022496;28;20433;-76
2022/05/03 03:41:15;;;;;;;15.82;8.00;;;;;;;6.36;77.22;101893.66;5030057;28;20040;-77
2022/05/03 03:43:40;;;;;;;14.95;8.98;;;;;;;6.31;77.07;101882.44;5029953;28;20471;-77
2022/05/03 03:46:07;;;;;;;17.95;8.55;;;;;;;6.30;77.08;101885.88;5030686;28;20526;-76
2022/05/03 03:48:33;;;;;;;13.75;8.30;;;;;;;6.29;77.23;101877.28;5036503;28;20028;-77
2022/05/03 03:51:00;;;;;;;15.27;8.38;;;;;;;6.28;77.44;101872.97;5029815;28;20017;-77
2022/05/03 03:53:26;;;;;;;15.85;8.48;;;;;;;6.23;77.57;101877.22;5029217;28;20049;-76
2022/05/03 03:55:53;;;;;;;13.88;8.38;;;;;;;6.20;77.71;101882.34;5030019;28;20029;-77
2022/05/03 03:58:19;;;;;;;16.38;8.23;;;;;;;6.17;77.33;101879.72;5029267;28;20067;-77
2022/05/03 04:00:49;;;;;;;14.35;8.05;;;;;;;6.13;77.89;101871.97;5030397;28;20031;-76
2022/05/03 04:03:15;;;;;;;13.70;7.60;;;;;;;6.07;77.39;101870.19;5031519;28;20102;-76
2022/05/03 04:05:40;;;;;;;15.23;8.00;;;;;;;6.05;77.41;101877.03;5037327;28;20082;-76
2022/05/03 04:08:06;;;;;;;13.13;7.37;;;;;;;6.05;77.66;101879.59;5029474;28;20021;-76
2022/05/03 04:10:31;;;;;;;16.05;8.40;;;;;;;6.03;77.36;101878.72;5029022;28;20634;-76
2022/05/03 04:12:57;;;;;;;13.77;8.00;;;;;;;6.03;77.85;101885.56;5019570;28;20021;-76
2022/05/03 04:15:25;;;;;;;16.63;7.70;;;;;;;6.00;77.61;101881.25;5029934;28;20045;-76
2022/05/03 04:17:50;;;;;;;14.32;7.72;;;;;;;6.02;78.26;101888.97;5029557;28;20107;-77
2022/05/03 04:20:16;;;;;;;15.27;8.02;;;;;;;5.98;78.27;101885.50;5028017;28;20438;-77
2022/05/03 04:22:41;;;;;;;14.57;8.02;;;;;;;6.06;77.99;101889.06;5029150;28;20029;-76
2022/05/03 04:25:07;;;;;;;15.07;8.00;;;;;;;6.06;78.48;101886.47;5029496;28;20514;-76
2022/05/03 04:27:32;;;;;;;12.85;7.57;;;;;;;6.06;78.52;101889.06;5035507;28;20074;-76
2022/05/03 04:30:00;;;;;;;13.43;7.88;;;;;;;6.07;78.40;101887.34;5029482;28;20028;-77
2022/05/03 04:32:29;;;;;;;15.68;8.32;;;;;;;6.13;79.07;101890.84;5028491;28;20408;-77
2022/05/03 04:34:55;;;;;;;20.98;8.57;;;;;;;6.15;78.80;101888.25;5035992;28;20036;-76
2022/05/03 04:37:20;;;;;;;15.45;7.82;;;;;;;6.18;78.79;101888.31;5029828;28;20283;-77
2022/05/03 04:39:46;;;;;;;14.47;8.13;;;;;;;6.20;78.77;101884.91;5028072;28;20417;-76
2022/05/03 04:42:11;;;;;;;15.57;8.27;;;;;;;6.21;78.59;101890.94;5027947;28;20288;-76
2022/05/03 04:44:37;;;;;;;17.25;8.55;;;;;;;6.22;78.47;101884.91;5038261;28;20068;-77
2022/05/03 04:47:02;;;;;;;18.10;8.32;;;;;;;6.26;78.72;101889.28;5035466;28;20450;-76
2022/05/03 04:49:28;;;;;;;16.50;8.30;;;;;;;6.28;78.88;101893.56;5029223;28;20129;-76
2022/05/03 04:51:54;;;;;;;18.52;8.55;;;;;;;6.28;78.29;101887.56;5027402;28;20053;-76
2022/05/03 04:54:19;;;;;;;16.02;8.75;;;;;;;6.33;78.67;101893.63;5028342;28;20034;-76
2022/05/03 04:56:52;;;;;;;18.45;8.80;;;;;;;6.33;78.80;101898.78;5027394;28;20021;-76
2022/05/03 04:59:17;;;;;;;18.42;8.25;;;;;;;6.33;78.63;101897.06;5028080;28;20029;-76
2022/05/03 05:01:43;;;;;;;16.83;8.90;;;;;;;6.33;77.91;101906.50;5028351;28;20096;-76
2022/05/03 05:04:08;;;;;;;18.50;8.85;;;;;;;6.39;77.86;101903.13;5026275;28;20053;-76
2022/05/03 05:06:33;;;;;;;19.38;9.07;;;;;;;6.45;78.30;101906.63;5034387;28;20392;-77
2022/05/03 05:08:58;;;;;;;17.00;8.77;;;;;;;6.49;78.88;101905.81;5025216;28;20033;-77
2022/05/03 05:11:24;;;;;;;18.43;8.73;;;;;;;6.53;77.78;101904.13;5016131;28;20117;-77
2022/05/03 05:13:50;;;;;;;17.20;8.97;;;;;;;6.58;78.72;101898.16;5024316;28;20292;-76
2022/05/03 05:16:15;;;;;;;19.63;9.68;;;;;;;6.65;78.92;101905.13;5024265;28;20282;-76
2022/05/03 05:18:40;;;;;;;18.23;9.65;;;;;;;6.70;78.74;101903.44;5043264;28;20103;-76
2022/05/03 05:21:05;;;;;;;19.73;9.55;;;;;;;6.76;78.17;101912.94;5027492;28;20021;-76
2022/05/03 05:23:31;;;;;;;18.88;9.77;;;;;;;6.82;78.98;101912.13;5028961;28;20045;-77
2022/05/03 05:25:56;;;;;;;19.13;10.23;;;;;;;6.87;78.84;101915.63;5025791;28;20041;-76
2022/05/03 05:28:23;;;;;;;18.85;9.85;;;;;;;6.97;78.09;101923.41;5032605;28;20029;-76
2022/05/03 05:30:50;;;;;;;17.58;9.93;;;;;;;7.01;78.51;101914.88;5027876;28;20083;-77
2022/05/03 05:33:15;;;;;;;19.70;10.00;;;;;;;7.10;77.96;101927.81;5031660;28;20448;-77
2022/05/03 05:35:41;;;;;;;16.65;9.70;;;;;;;7.21;78.54;101929.63;5027794;28;20052;-77
2022/05/03 05:38:06;;;;;;;18.90;10.27;;;;;;;7.25;77.56;101918.47;5027638;28;20102;-77
2022/05/03 05:40:32;;;;;;;20.20;10.65;;;;;;;7.40;78.63;101934.06;5022842;28;20552;-77
2022/05/03 05:43:00;;;;;;;19.73;10.25;;;;;;;7.46;77.20;101934.97;5033201;28;20029;-77
2022/05/03 05:45:26;;;;;;;19.92;10.48;;;;;;;7.55;77.18;101934.19;5021054;28;20025;-77
2022/05/03 05:47:51;;;;;;;19.52;10.73;;;;;;;7.67;78.17;101935.97;5027143;28;20095;-77
2022/05/03 05:50:16;;;;;;;18.67;10.67;;;;;;;7.76;78.00;101930.84;5031284;28;20049;-77
2022/05/03 05:55:25;;;;;;;21.30;10.93;;;;;;;8.14;75.68;101931.88;5025149;28;20049;-76
2022/05/03 05:57:51;;;;;;;20.83;10.03;;;;;;;8.42;75.37;101938.03;5021457;28;20025;-77
2022/05/03 06:00:16;;;;;;;20.33;10.63;;;;;;;8.67;72.99;101934.63;5024983;28;20311;-76
2022/05/03 06:02:41;;;;;;;20.52;10.18;;;;;;;8.86;73.54;101937.25;5045004;28;20451;-76
2022/05/03 06:05:07;;;;;;;19.42;10.27;;;;;;;8.95;73.18;101939.84;5027350;28;20447;-77
2022/05/03 06:07:33;;;;;;;20.60;10.00;;;;;;;8.98;72.19;101934.69;5030486;28;20061;-77
2022/05/03 06:09:58;;;;;;;18.08;9.57;;;;;;;9.02;71.25;101937.25;5029361;28;20387;-77
2022/05/03 06:12:24;;;;;;;20.27;10.60;;;;;;;9.27;73.76;101930.38;5025987;28;20451;-77
2022/05/03 06:14:49;;;;;;;18.45;9.93;;;;;;;9.66;71.27;101926.84;5022533;28;20049;-77
2022/05/03 06:17:14;;;;;;;15.75;8.50;;;;;;;9.79;68.95;101932.84;5022024;28;20469;-77
2022/05/03 06:19:39;;;;;;;16.80;8.70;;;;;;;9.82;69.50;101933.72;5028395;28;20443;-76
2022/05/03 06:22:05;;;;;;;15.60;8.13;;;;;;;9.77;66.78;101934.56;5034803;28;20280;-76
2022/05/03 06:24:30;;;;;;;19.67;9.00;;;;;;;9.75;69.32;101926.81;5030522;28;20706;-76
2022/05/03 06:26:55;;;;;;;16.52;8.60;;;;;;;9.74;67.52;101942.38;5032560;28;20406;-76
2022/05/03 06:29:21;;;;;;;17.23;8.67;;;;;;;9.71;71.59;101942.34;5025140;28;20418;-76
2022/05/03 06:31:46;;;;;;;14.53;7.57;;;;;;;9.75;66.79;101938.91;5041530;28;20264;-76
2022/05/03 06:34:11;;;;;;;13.63;7.03;;;;;;;9.77;67.55;101937.16;5030024;28;20576;-77
2022/05/03 06:36:37;;;;;;;14.75;7.78;;;;;;;9.81;69.67;101939.75;5029437;28;20526;-77
2022/05/03 06:39:04;;;;;;;17.38;7.68;;;;;;;9.87;68.71;101937.13;5029808;28;20083;-77
2022/05/03 06:41:29;;;;;;;13.38;7.15;;;;;;;9.94;67.73;101942.28;5031150;28;20369;-77
2022/05/03 06:43:57;;;;;;;20.17;8.18;;;;;;;9.97;70.03;101927.59;5035105;28;20537;-77
2022/05/03 06:46:23;;;;;;;17.90;6.75;;;;;;;10.01;66.38;101941.41;5031147;28;20029;-77
2022/05/03 06:48:48;;;;;;;10.98;6.60;;;;;;;10.08;65.06;101941.38;5037878;28;20036;-77
2022/05/03 06:51:13;;;;;;;12.90;6.30;;;;;;;10.39;65.54;101938.66;5031007;28;20019;-77
2022/05/03 06:53:39;;;;;;;13.43;6.60;;;;;;;11.00;63.27;101942.56;5030962;28;20639;-77
2022/05/03 06:56:05;;;;;;;11.55;6.35;;;;;;;11.88;63.63;101941.75;5028056;28;20061;-78
2022/05/03 06:58:30;;;;;;;11.90;6.82;;;;;;;12.74;61.36;101938.03;5029933;28;20018;-77
2022/05/03 07:00:55;;;;;;;13.88;5.63;;;;;;;13.82;59.36;101937.91;5030055;28;20095;-78
2022/05/03 07:03:21;;;;;;;8.30;4.80;;;;;;;14.66;50.33;101933.53;5035301;28;20029;-77
2022/05/03 07:05:46;;;;;;;10.45;5.30;;;;;;;15.25;51.79;101941.66;5018659;28;20330;-78
2022/05/03 07:08:12;;;;;;;7.28;4.70;;;;;;;15.63;46.19;101946.75;5028381;28;20109;-78
2022/05/03 07:10:39;;;;;;;7.20;4.38;;;;;;;16.02;47.25;101933.50;5030985;28;20025;-78
2022/05/03 07:13:05;;;;;;;10.10;4.00;;;;;;;16.17;40.59;101944.34;5030488;28;20037;-78
2022/05/03 07:15:30;;;;;;;8.00;3.75;;;;;;;16.57;39.22;101940.56;5030176;28;20021;-78
2022/05/03 07:23:26;;;;;;;5.70;3.20;;;;;;;17.94;37.90;101930.72;5028173;28;19923;-78
2022/05/03 07:25:53;;;;;;;8.27;3.85;;;;;;;18.67;36.10;101931.41;5027790;28;20172;-78
2022/05/03 07:28:19;;;;;;;7.65;3.58;;;;;;;19.38;35.49;101932.78;5027834;28;20025;-78
2022/05/03 07:30:44;;;;;;;6.57;3.75;;;;;;;19.72;32.62;101932.22;5032273;28;20040;-78
2022/05/03 07:33:09;;;;;;;10.43;3.67;;;;;;;20.07;35.17;101928.84;5030086;28;20132;-79
2022/05/03 07:35:35;;;;;;;5.78;3.97;;;;;;;20.50;31.68;101937.41;5035764;28;20037;-79
2022/05/03 07:38:00;;;;;;;5.43;3.72;;;;;;;20.87;30.91;101942.63;5030090;28;20021;-79
2022/05/03 07:40:25;;;;;;;8.57;4.00;;;;;;;20.96;29.96;101943.94;5024788;28;20034;-79
2022/05/03 07:42:50;;;;;;;7.85;4.32;;;;;;;20.65;29.22;101946.38;5027777;28;20295;-79
2022/05/03 07:45:16;;;;;;;5.80;3.90;;;;;;;20.93;29.88;101945.88;5029513;28;20021;-79
2022/05/03 07:47:42;;;;;;;8.85;4.18;;;;;;;21.64;31.61;101932.53;5023674;28;20288;-79
2022/05/03 07:50:08;;;;;;;6.20;3.95;;;;;;;21.84;27.48;101946.47;5019233;28;20034;-79
2022/05/03 07:52:36;;;;;;;5.95;3.90;;;;;;;22.24;30.87;101942.59;5034660;28;20049;-79
2022/05/03 07:55:03;;;;;;;6.47;3.80;;;;;;;22.50;29.48;101938.50;5023720;28;20057;-79
2022/05/03 07:57:28;;;;;;;6.45;4.10;;;;;;;22.91;28.41;101939.66;5033932;28;20036;-79
2022/05/03 07:59:55;;;;;;;6.63;4.27;;;;;;;23.28;27.77;101934.84;5037793;28;20032;-80
2022/05/03 08:02:24;;;;;;;7.45;4.20;;;;;;;23.61;30.28;101939.00;5026505;28;20516;-77
2022/05/03 08:04:54;;;;;;;8.13;4.55;;;;;;;23.66;26.76;101933.44;5022260;28;20115;-76
2022/05/03 08:07:21;;;;;;;7.03;4.20;;;;;;;23.83;27.91;101940.34;5031595;28;20464;-77
2022/05/03 08:09:46;;;;;;;7.22;5.38;;;;;;;23.89;27.49;101934.66;5028340;28;20104;-76
2022/05/03 08:12:12;;;;;;;8.18;5.00;;;;;;;23.97;27.41;101938.53;5028710;28;20120;-76
2022/05/03 08:14:38;;;;;;;7.63;5.10;;;;;;;23.90;27.49;101939.00;5018672;28;20107;-76
2022/05/03 08:17:03;;;;;;;8.30;5.10;;;;;;;24.05;29.42;101937.22;5033358;28;20025;-76
2022/05/03 08:19:29;;;;;;;8.20;5.07;;;;;;;23.90;27.50;101939.88;5032539;28;20279;-76
2022/05/03 08:21:56;;;;;;;8.05;4.95;;;;;;;23.94;27.79;101941.41;5028775;28;20046;-76
2022/05/03 08:24:22;;;;;;;8.35;5.28;;;;;;;23.81;25.88;101943.09;5030130;28;20029;-76
2022/05/03 08:26:47;;;;;;;9.80;5.68;;;;;;;23.52;27.42;101949.31;5016670;28;20029;-76
2022/05/03 08:29:12;;;;;;;11.35;5.50;;;;;;;22.86;28.05;101944.34;5031752;28;20099;-76
2022/05/03 08:31:38;;;;;;;7.87;5.80;;;;;;;22.00;29.44;101947.41;5025543;28;20116;-75
2022/05/03 08:34:03;;;;;;;11.07;5.97;;;;;;;21.13;29.76;101954.50;5034531;28;20722;-75
2022/05/03 08:36:30;;;;;;;10.23;5.73;;;;;;;20.78;31.88;101953.59;5029402;28;20296;-75
2022/05/03 08:44:25;;;;;;;11.77;6.95;;;;;;;19.60;34.61;101946.75;5028878;28;20091;-75
2022/05/03 08:46:53;;;;;;;11.68;7.22;;;;;;;19.55;34.98;101947.88;5029351;28;20025;-75
2022/05/03 08:49:20;;;;;;;14.27;7.32;;;;;;;19.38;34.47;101953.00;5027615;28;20029;-75
2022/05/03 08:51:48;;;;;;;12.93;7.32;;;;;;;19.31;35.31;101949.78;5027989;28;20052;-75
2022/05/03 08:54:15;;;;;;;13.32;8.02;;;;;;;19.20;34.91;101951.97;5025926;28;20050;-75
2022/05/03 08:56:40;;;;;;;12.48;7.47;;;;;;;19.13;36.02;101951.38;5026619;28;20090;-75
2022/05/03 08:59:06;;;;;;;12.15;7.25;;;;;;;19.41;37.96;101952.84;5021799;28;20103;-75
2022/05/03 09:01:31;;;;;;;12.15;7.20;;;;;;;19.65;37.35;101950.03;5031151;28;20030;-75
2022/05/03 09:03:57;;;;;;;11.70;7.45;;;;;;;19.59;35.98;101952.94;5036946;28;20104;-75
2022/05/03 09:06:40;;;;;;;11.77;7.35;;;;;;;19.65;36.69;101951.84;5029401;28;20391;-75
2022/05/03 09:09:09;;;;;;;15.87;7.73;;;;;;;19.45;36.14;101951.81;5031847;28;20440;-75
2022/05/03 09:11:46;;;;;;;14.40;7.90;;;;;;;19.42;37.63;101949.31;5027904;28;20120;-78
2022/05/03 09:14:13;;;;;;;11.82;7.82;;;;;;;19.03;35.96;101950.06;5023575;28;20032;-78
2022/05/03 09:16:49;;;;;;;12.70;7.80;;;;;;;18.76;38.07;101948.56;5028867;28;20036;-78
2022/05/03 09:19:25;;;;;;;13.98;8.02;;;;;;;18.59;38.10;101943.09;5028222;28;20437;-78
2022/05/03 09:24:58;;;;;;;16.52;8.15;;;;;;;18.64;39.39;101949.88;5030472;28;20060;-78
2022/05/03 09:27:24;;;;;;;12.93;8.57;;;;;;;18.54;39.05;101952.00;5025938;28;20392;-78
2022/05/03 09:30:04;;;;;;;14.75;8.10;;;;;;;18.66;38.24;101948.06;5029200;28;20107;-78
2022/05/03 09:32:43;;;;;;;13.02;8.23;;;;;;;18.51;39.73;101946.84;5032322;28;20236;-78
2022/05/03 09:35:31;;;;;;;15.70;8.40;;;;;;;18.48;40.01;101944.38;5032306;28;20021;-78
2022/05/03 09:37:57;;;;;;;14.18;8.60;;;;;;;18.46;40.36;101951.44;5029044;28;20167;-78
2022/05/03 09:40:22;;;;;;;14.00;8.35;;;;;;;18.60;40.84;101936.94;5029981;28;20403;-78
2022/05/03 09:42:56;;;;;;;14.32;8.25;;;;;;;18.78;41.23;101937.06;5046852;28;20095;-78
2022/05/03 09:45:23;;;;;;;14.63;7.70;;;;;;;18.68;39.29;101948.88;5026125;28;20037;-78
2022/05/03 09:47:51;;;;;;;14.50;7.78;;;;;;;18.68;39.57;101945.38;5046806;28;20029;-78
2022/05/03 09:50:32;;;;;;;17.67;7.88;;;;;;;18.64;39.45;101947.25;5039803;28;20028;-78
2022/05/03 09:52:59;;;;;;;12.18;7.47;;;;;;;18.57;39.63;101940.53;5032306;28;20050;-78
2022/05/03 09:55:34;;;;;;;14.00;7.68;;;;;;;18.64;40.66;101947.25;5032152;28;20483;-78
2022/05/03 09:58:01;;;;;;;16.20;7.93;;;;;;;18.67;40.88;101938.41;5024011;28;20288;-78
2022/05/03 10:00:27;;;;;;;15.45;8.50;;;;;;;18.81;40.63;101943.97;5029248;28;20068;-78
2022/05/03 10:02:52;;;;;;;12.40;7.47;;;;;;;18.84;38.93;101934.19;5044165;28;20052;-78
2022/05/03 10:05:20;;;;;;;13.27;7.70;;;;;;;19.01;41.64;101944.00;5031904;28;20033;-78
2022/05/03 10:07:46;;;;;;;13.80;7.55;;;;;;;18.99;39.87;101935.34;5030273;28;20140;-78
2022/05/03 10:10:14;;;;;;;12.43;7.70;;;;;;;18.73;39.71;101935.53;5030574;28;20063;-77
2022/05/03 10:12:41;;;;;;;13.88;7.97;;;;;;;18.44;40.56;101941.91;5031617;28;20486;-78
2022/05/03 10:15:08;;;;;;;13.65;7.70;;;;;;;18.55;41.52;101939.72;5031890;28;20108;-78
2022/05/03 10:20:42;;;;;;;11.00;6.90;;;;;;;18.89;41.48;101931.38;5031701;28;20072;-77
2022/05/03 10:23:23;;;;;;;13.50;7.30;;;;;;;19.17;41.67;101931.09;5028779;28;20120;-78
2022/05/03 10:25:50;;;;;;;14.30;8.07;;;;;;;19.28;40.11;101929.72;5030458;28;20025;-78
2022/05/03 10:28:15;;;;;;;13.50;8.00;;;;;;;18.98;40.08;101927.50;5024086;28;20611;-80
2022/05/03 10:31:07;;;;;;;11.73;7.60;;;;;;;18.58;41.14;101925.63;5029880;28;20508;-79
2022/05/03 10:33:32;;;;;;;10.10;6.57;;;;;;;18.12;41.37;101928.25;5034562;28;20498;-79
2022/05/03 10:35:59;;;;;;;10.90;6.80;;;;;;;17.81;42.88;101925.03;5030225;28;20064;-79
2022/05/03 10:38:35;;;;;;;12.52;7.35;;;;;;;17.80;43.25;101919.88;5028608;28;20304;-79
2022/05/03 10:41:01;;;;;;;11.60;6.63;;;;;;;17.83;43.92;101915.34;5046482;28;20030;-79
2022/05/03 10:43:27;;;;;;;12.80;7.28;;;;;;;17.86;43.54;101914.38;5031257;28;20036;-79
2022/05/03 10:45:58;;;;;;;12.18;6.50;;;;;;;18.16;44.78;101908.84;5028857;28;20025;-79
2022/05/03 10:48:32;;;;;;;12.32;6.43;;;;;;;18.68;43.00;101911.22;5029949;28;20033;-79
2022/05/03 10:51:00;;;;;;;14.43;8.43;;;;;;;18.71;41.23;101914.56;5028251;28;20072;-79
2022/05/03 10:53:31;;;;;;;14.80;7.88;;;;;;;18.60;42.46;101910.69;5030640;28;20069;-79
2022/05/03 10:56:03;;;;;;;13.77;8.02;;;;;;;18.57;42.97;101913.41;5030509;28;20105;-78
2022/05/03 10:58:31;;;;;;;13.85;7.82;;;;;;;18.40;42.02;101906.19;5030471;28;20087;-78
2022/05/03 11:01:18;;;;;;;13.10;7.93;;;;;;;18.24;42.61;101912.94;5028531;28;20079;-77
2022/05/03 11:03:57;;;;;;;11.32;7.15;;;;;;;18.21;42.92;101902.56;5028537;28;20030;-77
2022/05/03 11:06:23;;;;;;;12.50;7.47;;;;;;;18.50;42.29;101905.75;5028074;28;20037;-77
2022/05/03 11:11:35;;;;;;;10.45;5.82;;;;;;;19.17;42.64;101903.03;5042609;28;20061;-77
2022/05/03 11:14:01;;;;;;;8.05;4.90;;;;;;;19.36;40.28;101889.94;5032305;28;20080;-78
2022/05/03 11:16:27;;;;;;;9.10;5.90;;;;;;;19.58;41.32;101882.84;5027426;28;20626;-78
2022/05/03 11:18:53;;;;;;;16.00;8.40;;;;;;;19.54;40.16;101885.69;5030456;28;20100;-78
2022/05/03 11:21:19;;;;;;;12.75;7.97;;;;;;;19.46;41.95;101899.16;5025224;28;20030;-78
2022/05/03 11:23:52;;;;;;;12.80;7.38;;;;;;;19.23;41.15;101891.41;5025434;28;20017;-78
2022/05/03 11:26:23;;;;;;;11.80;7.57;;;;;;;18.85;40.63;101885.97;5028072;28;20425;-78
2022/05/03 11:28:56;;;;;;;14.75;8.93;;;;;;;18.64;41.37;101889.47;5030209;28;20025;-79
2022/05/03 11:31:23;;;;;;;17.45;8.95;;;;;;;18.49;42.98;101885.66;5027194;28;20029;-79
2022/05/03 11:33:59;;;;;;;13.52;8.80;;;;;;;18.53;43.86;101889.88;5028680;28;20030;-79
2022/05/03 11:36:26;;;;;;;13.50;8.40;;;;;;;18.48;43.24;101880.50;5027312;28;20549;-79
2022/05/03 11:38:53;;;;;;;12.50;8.02;;;;;;;18.58;43.70;101879.22;5029398;28;20029;-79
2022/05/03 11:41:23;;;;;;;15.30;8.02;;;;;;;18.81;44.07;101873.91;5032958;28;20033;-79
2022/05/03 11:43:48;;;;;;;14.80;8.50;;;;;;;19.14;42.88;101870.75;5020218;28;20271;-79
2022/05/03 11:46:16;;;;;;;16.35;9.40;;;;;;;19.21;42.57;101872.22;5024970;28;20100;-79
2022/05/03 11:48:42;;;;;;;17.58;10.02;;;;;;;19.17;42.80;101871.50;5030122;28;20025;-79
2022/05/03 11:56:37;;;;;;;17.58;11.25;;;;;;;19.31;42.84;101858.59;5028587;28;20655;-79
2022/05/03 11:59:03;;;;;;;17.25;10.63;;;;;;;19.38;42.78;101853.09;5028847;28;20029;-79
2022/05/03 12:01:33;;;;;;;16.30;10.60;;;;;;;19.40;43.50;101857.34;5031080;28;20118;-79
2022/05/03 12:03:59;;;;;;;17.70;10.25;;;;;;;19.38;43.65;101858.34;5035127;28;20044;-79
2022/05/03 12:06:43;;;;;;;17.17;9.70;;;;;;;19.51;43.31;101852.50;5027490;28;20033;-79
2022/05/03 12:09:10;;;;;;;;;;;;;;;19.83;41.81;101845.75;5034680;28;20033;-78
2022/05/03 12:12:42;;;;;;;15.80;9.32;;;;;;;19.78;40.54;101846.91;5025572;28;20007;-78
2022/05/03 12:14:34;;;;;;;12.85;7.72;;;;;;;20.04;40.69;101842.13;5027224;28;21496;-78
2022/05/03 12:17:00;;;;;;;14.20;8.38;;;;;;;20.11;40.18;101842.69;5029952;28;20064;-78